sensor_id;sensor_type;location;lat;lon;timestamp;P1;durP1;ratioP1;P2;durP2;ratioP2
14015;SDS011;7083;48.854;9.158;2022-08-05T00:01:56;2.70;;;2.60;;
14015;SDS011;7083;48.854;9.158;2022-08-05T00:04:22;2.90;;;2.67;;
14015;SDS011;7083;48.854;9.158;2022-08-05T00:06:49;2.60;;;2.50;;
14015;SDS011;7083;48.854;9.158;2022-08-05T00:09:16;3.00;;;2.80;;
14015;SDS011;7083;48.854;9.158;2022-08-05T00:11:42;2.80;;;2.60;;
14015;SDS011;7083;48.854;9.158;2022-08-05T00:14:09;2.70;;;2.60;;
14015;SDS011;7083;48.854;9.158;2022-08-05T00:16:37;2.70;;;2.50;;
14015;SDS011;7083;48.854;9.158;2022-08-05T00:19:04;2.10;;;2.00;;
14015;SDS011;7083;48.854;9.158;2022-08-05T00:21:30;2.80;;;2.70;;
14015;SDS011;7083;48.854;9.158;2022-08-05T00:23:57;2.40;;;2.30;;
14015;SDS011;7083;48.854;9.158;2022-08-05T00:26:24;3.00;;;2.80;;
14015;SDS011;7083;48.854;9.158;2022-08-05T00:28:51;3.00;;;2.90;;
14015;SDS011;7083;48.854;9.158;2022-08-05T00:31:18;3.33;;;3.13;;
14015;SDS011;7083;48.854;9.158;2022-08-05T00:33:45;2.87;;;2.77;;
14015;SDS011;7083;48.854;9.158;2022-08-05T00:36:12;3.70;;;3.20;;
14015;SDS011;7083;48.854;9.158;2022-08-05T00:38:39;2.90;;;2.80;;
14015;SDS011;7083;48.854;9.158;2022-08-05T00:41:06;2.43;;;2.33;;
14015;SDS011;7083;48.854;9.158;2022-08-05T00:43:32;2.63;;;2.53;;
14015;SDS011;7083;48.854;9.158;2022-08-05T00:45:59;2.50;;;2.40;;
14015;SDS011;7083;48.854;9.158;2022-08-05T00:48:26;2.93;;;2.83;;
14015;SDS011;7083;48.854;9.158;2022-08-05T00:50:54;2.73;;;2.53;;
14015;SDS011;7083;48.854;9.158;2022-08-05T00:53:21;2.73;;;2.63;;
14015;SDS011;7083;48.854;9.158;2022-08-05T00:55:48;2.80;;;2.60;;
14015;SDS011;7083;48.854;9.158;2022-08-05T00:58:16;3.03;;;2.53;;
14015;SDS011;7083;48.854;9.158;2022-08-05T01:00:43;9.87;;;2.87;;
14015;SDS011;7083;48.854;9.158;2022-08-05T01:03:11;2.23;;;2.03;;
14015;SDS011;7083;48.854;9.158;2022-08-05T01:05:38;2.83;;;2.37;;
14015;SDS011;7083;48.854;9.158;2022-08-05T01:08:06;4.57;;;2.30;;
14015;SDS011;7083;48.854;9.158;2022-08-05T01:10:37;3.23;;;2.43;;
14015;SDS011;7083;48.854;9.158;2022-08-05T01:13:11;4.03;;;2.10;;
14015;SDS011;7083;48.854;9.158;2022-08-05T01:15:42;2.63;;;2.27;;
14015;SDS011;7083;48.854;9.158;2022-08-05T01:18:13;4.77;;;2.73;;
14015;SDS011;7083;48.854;9.158;2022-08-05T01:20:48;2.37;;;2.10;;
14015;SDS011;7083;48.854;9.158;2022-08-05T01:23:24;2.80;;;2.30;;
14015;SDS011;7083;48.854;9.158;2022-08-05T01:26:09;2.20;;;2.10;;
14015;SDS011;7083;48.854;9.158;2022-08-05T01:28:48;2.00;;;1.90;;
14015;SDS011;7083;48.854;9.158;2022-08-05T01:31:21;4.97;;;2.10;;
14015;SDS011;7083;48.854;9.158;2022-08-05T01:33:55;3.97;;;2.00;;
14015;SDS011;7083;48.854;9.158;2022-08-05T01:36:28;2.40;;;2.20;;
14015;SDS011;7083;48.854;9.158;2022-08-05T01:38:57;1.93;;;1.73;;
14015;SDS011;7083;48.854;9.158;2022-08-05T01:41:25;5.40;;;2.43;;
14015;SDS011;7083;48.854;9.158;2022-08-05T01:43:55;2.37;;;2.27;;
14015;SDS011;7083;48.854;9.158;2022-08-05T01:46:22;3.20;;;1.80;;
14015;SDS011;7083;48.854;9.158;2022-08-05T01:48:51;3.23;;;2.70;;
14015;SDS011;7083;48.854;9.158;2022-08-05T01:51:19;7.07;;;2.30;;
14015;SDS011;7083;48.854;9.158;2022-08-05T01:53:48;7.13;;;2.70;;
14015;SDS011;7083;48.854;9.158;2022-08-05T01:56:17;2.70;;;2.27;;
14015;SDS011;7083;48.854;9.158;2022-08-05T01:58:46;6.17;;;2.87;;
14015;SDS011;7083;48.854;9.158;2022-08-05T02:01:18;5.70;;;2.07;;
14015;SDS011;7083;48.854;9.158;2022-08-05T02:03:46;2.43;;;2.00;;
14015;SDS011;7083;48.854;9.158;2022-08-05T02:06:16;3.37;;;2.13;;
14015;SDS011;7083;48.854;9.158;2022-08-05T02:08:43;2.00;;;1.90;;
14015;SDS011;7083;48.854;9.158;2022-08-05T02:11:11;1.97;;;1.87;;
14015;SDS011;7083;48.854;9.158;2022-08-05T02:13:43;2.27;;;2.17;;
14015;SDS011;7083;48.854;9.158;2022-08-05T02:16:18;3.67;;;2.00;;
14015;SDS011;7083;48.854;9.158;2022-08-05T02:18:48;3.17;;;2.30;;
14015;SDS011;7083;48.854;9.158;2022-08-05T02:21:18;3.63;;;2.07;;
14015;SDS011;7083;48.854;9.158;2022-08-05T02:23:50;2.17;;;1.97;;
14015;SDS011;7083;48.854;9.158;2022-08-05T02:26:21;2.50;;;2.30;;
14015;SDS011;7083;48.854;9.158;2022-08-05T02:28:50;2.00;;;1.90;;
14015;SDS011;7083;48.854;9.158;2022-08-05T02:31:21;4.97;;;2.17;;
14015;SDS011;7083;48.854;9.158;2022-08-05T02:33:52;2.30;;;2.20;;
14015;SDS011;7083;48.854;9.158;2022-08-05T02:36:23;2.00;;;1.90;;
14015;SDS011;7083;48.854;9.158;2022-08-05T02:38:52;2.03;;;1.83;;
14015;SDS011;7083;48.854;9.158;2022-08-05T02:41:21;2.63;;;2.37;;
14015;SDS011;7083;48.854;9.158;2022-08-05T02:43:50;2.33;;;2.00;;
14015;SDS011;7083;48.854;9.158;2022-08-05T02:46:22;4.13;;;2.20;;
14015;SDS011;7083;48.854;9.158;2022-08-05T02:48:51;2.37;;;2.20;;
14015;SDS011;7083;48.854;9.158;2022-08-05T02:51:19;2.20;;;2.00;;
14015;SDS011;7083;48.854;9.158;2022-08-05T02:53:47;1.90;;;1.80;;
14015;SDS011;7083;48.854;9.158;2022-08-05T02:56:15;2.70;;;2.20;;
14015;SDS011;7083;48.854;9.158;2022-08-05T02:58:42;2.00;;;1.90;;
14015;SDS011;7083;48.854;9.158;2022-08-05T03:01:11;1.97;;;1.90;;
14015;SDS011;7083;48.854;9.158;2022-08-05T03:03:43;3.07;;;2.63;;
14015;SDS011;7083;48.854;9.158;2022-08-05T03:06:14;2.90;;;2.53;;
14015;SDS011;7083;48.854;9.158;2022-08-05T03:08:42;2.37;;;2.20;;
14015;SDS011;7083;48.854;9.158;2022-08-05T03:11:15;5.37;;;2.70;;
14015;SDS011;7083;48.854;9.158;2022-08-05T03:13:42;5.13;;;3.10;;
14015;SDS011;7083;48.854;9.158;2022-08-05T03:16:09;2.80;;;2.60;;
14015;SDS011;7083;48.854;9.158;2022-08-05T03:18:36;4.50;;;2.60;;
14015;SDS011;7083;48.854;9.158;2022-08-05T03:21:04;3.07;;;2.70;;
14015;SDS011;7083;48.854;9.158;2022-08-05T03:23:31;2.40;;;2.30;;
14015;SDS011;7083;48.854;9.158;2022-08-05T03:25:59;2.80;;;2.23;;
14015;SDS011;7083;48.854;9.158;2022-08-05T03:28:26;2.17;;;2.07;;
14015;SDS011;7083;48.854;9.158;2022-08-05T03:30:53;2.27;;;2.07;;
14015;SDS011;7083;48.854;9.158;2022-08-05T03:33:21;2.47;;;2.20;;
14015;SDS011;7083;48.854;9.158;2022-08-05T03:35:48;2.00;;;1.90;;
14015;SDS011;7083;48.854;9.158;2022-08-05T03:38:17;2.53;;;2.37;;
14015;SDS011;7083;48.854;9.158;2022-08-05T03:40:46;2.30;;;2.20;;
14015;SDS011;7083;48.854;9.158;2022-08-05T03:43:13;2.20;;;2.10;;
14015;SDS011;7083;48.854;9.158;2022-08-05T03:45:40;2.17;;;2.10;;
14015;SDS011;7083;48.854;9.158;2022-08-05T03:48:07;2.70;;;2.53;;
14015;SDS011;7083;48.854;9.158;2022-08-05T03:50:36;4.70;;;2.33;;
14015;SDS011;7083;48.854;9.158;2022-08-05T03:53:10;2.70;;;2.10;;
14015;SDS011;7083;48.854;9.158;2022-08-05T03:55:41;2.10;;;2.00;;
14015;SDS011;7083;48.854;9.158;2022-08-05T03:58:15;1.87;;;1.77;;
14015;SDS011;7083;48.854;9.158;2022-08-05T04:00:44;2.00;;;1.90;;
14015;SDS011;7083;48.854;9.158;2022-08-05T04:03:12;2.20;;;2.00;;
14015;SDS011;7083;48.854;9.158;2022-08-05T04:05:40;2.20;;;2.10;;
14015;SDS011;7083;48.854;9.158;2022-08-05T04:08:09;2.33;;;2.13;;
14015;SDS011;7083;48.854;9.158;2022-08-05T04:10:36;1.70;;;1.67;;
14015;SDS011;7083;48.854;9.158;2022-08-05T04:13:05;2.60;;;2.50;;
14015;SDS011;7083;48.854;9.158;2022-08-05T04:15:32;3.80;;;2.17;;
14015;SDS011;7083;48.854;9.158;2022-08-05T04:18:00;1.87;;;1.87;;
14015;SDS011;7083;48.854;9.158;2022-08-05T04:20:28;1.70;;;1.67;;
14015;SDS011;7083;48.854;9.158;2022-08-05T04:22:55;2.30;;;2.10;;
14015;SDS011;7083;48.854;9.158;2022-08-05T04:25:21;1.80;;;1.80;;
14015;SDS011;7083;48.854;9.158;2022-08-05T04:27:48;5.23;;;2.83;;
14015;SDS011;7083;48.854;9.158;2022-08-05T04:30:16;2.40;;;2.20;;
14015;SDS011;7083;48.854;9.158;2022-08-05T04:32:43;2.93;;;2.73;;
14015;SDS011;7083;48.854;9.158;2022-08-05T04:35:09;8.10;;;3.03;;
14015;SDS011;7083;48.854;9.158;2022-08-05T04:37:36;7.13;;;2.73;;
14015;SDS011;7083;48.854;9.158;2022-08-05T04:40:03;4.13;;;2.50;;
14015;SDS011;7083;48.854;9.158;2022-08-05T04:42:31;6.37;;;3.30;;
14015;SDS011;7083;48.854;9.158;2022-08-05T04:44:57;3.27;;;2.97;;
14015;SDS011;7083;48.854;9.158;2022-08-05T04:47:25;2.80;;;2.60;;
14015;SDS011;7083;48.854;9.158;2022-08-05T04:49:52;3.07;;;2.87;;
14015;SDS011;7083;48.854;9.158;2022-08-05T04:52:19;3.40;;;3.10;;
14015;SDS011;7083;48.854;9.158;2022-08-05T04:54:45;3.10;;;2.90;;
14015;SDS011;7083;48.854;9.158;2022-08-05T04:57:12;3.87;;;3.50;;
14015;SDS011;7083;48.854;9.158;2022-08-05T04:59:38;2.93;;;2.70;;
14015;SDS011;7083;48.854;9.158;2022-08-05T05:02:05;2.90;;;2.70;;
14015;SDS011;7083;48.854;9.158;2022-08-05T05:04:34;5.13;;;3.63;;
14015;SDS011;7083;48.854;9.158;2022-08-05T05:07:00;9.50;;;3.50;;
14015;SDS011;7083;48.854;9.158;2022-08-05T05:09:27;3.50;;;2.90;;
14015;SDS011;7083;48.854;9.158;2022-08-05T05:11:54;3.97;;;3.20;;
14015;SDS011;7083;48.854;9.158;2022-08-05T05:14:20;2.70;;;2.50;;
14015;SDS011;7083;48.854;9.158;2022-08-05T05:16:47;2.93;;;2.73;;
14015;SDS011;7083;48.854;9.158;2022-08-05T05:19:14;4.67;;;3.07;;
14015;SDS011;7083;48.854;9.158;2022-08-05T05:21:42;3.63;;;3.30;;
14015;SDS011;7083;48.854;9.158;2022-08-05T05:24:09;4.13;;;3.17;;
14015;SDS011;7083;48.854;9.158;2022-08-05T05:26:35;9.23;;;4.20;;
14015;SDS011;7083;48.854;9.158;2022-08-05T05:29:02;4.60;;;3.10;;
14015;SDS011;7083;48.854;9.158;2022-08-05T05:31:28;6.70;;;3.13;;
14015;SDS011;7083;48.854;9.158;2022-08-05T05:33:55;3.33;;;3.03;;
14015;SDS011;7083;48.854;9.158;2022-08-05T05:36:22;5.53;;;3.80;;
14015;SDS011;7083;48.854;9.158;2022-08-05T05:38:50;4.53;;;4.13;;
14015;SDS011;7083;48.854;9.158;2022-08-05T05:41:17;6.33;;;4.20;;
14015;SDS011;7083;48.854;9.158;2022-08-05T05:43:44;9.50;;;3.87;;
14015;SDS011;7083;48.854;9.158;2022-08-05T05:46:10;14.60;;;4.80;;
14015;SDS011;7083;48.854;9.158;2022-08-05T05:48:37;7.77;;;3.53;;
14015;SDS011;7083;48.854;9.158;2022-08-05T05:51:05;5.90;;;3.60;;
14015;SDS011;7083;48.854;9.158;2022-08-05T05:53:32;9.07;;;3.80;;
14015;SDS011;7083;48.854;9.158;2022-08-05T05:56:00;4.40;;;4.00;;
14015;SDS011;7083;48.854;9.158;2022-08-05T05:58:27;6.93;;;3.67;;
14015;SDS011;7083;48.854;9.158;2022-08-05T06:00:53;4.07;;;3.67;;
14015;SDS011;7083;48.854;9.158;2022-08-05T06:03:21;5.07;;;4.13;;
14015;SDS011;7083;48.854;9.158;2022-08-05T06:05:48;3.93;;;3.47;;
14015;SDS011;7083;48.854;9.158;2022-08-05T06:08:14;8.23;;;3.87;;
14015;SDS011;7083;48.854;9.158;2022-08-05T06:10:41;3.43;;;3.13;;
14015;SDS011;7083;48.854;9.158;2022-08-05T06:13:09;4.23;;;3.63;;
14015;SDS011;7083;48.854;9.158;2022-08-05T06:15:36;3.03;;;2.83;;
14015;SDS011;7083;48.854;9.158;2022-08-05T06:18:02;5.57;;;4.37;;
14015;SDS011;7083;48.854;9.158;2022-08-05T06:20:29;6.27;;;3.37;;
14015;SDS011;7083;48.854;9.158;2022-08-05T06:22:56;4.17;;;3.87;;
14015;SDS011;7083;48.854;9.158;2022-08-05T06:25:23;4.03;;;3.73;;
14015;SDS011;7083;48.854;9.158;2022-08-05T06:27:50;4.40;;;3.20;;
14015;SDS011;7083;48.854;9.158;2022-08-05T06:30:18;4.37;;;3.53;;
14015;SDS011;7083;48.854;9.158;2022-08-05T06:32:45;3.97;;;3.50;;
14015;SDS011;7083;48.854;9.158;2022-08-05T06:35:11;4.30;;;3.17;;
14015;SDS011;7083;48.854;9.158;2022-08-05T06:37:38;4.40;;;2.90;;
14015;SDS011;7083;48.854;9.158;2022-08-05T06:40:05;2.50;;;2.30;;
14015;SDS011;7083;48.854;9.158;2022-08-05T06:42:32;2.60;;;2.40;;
14015;SDS011;7083;48.854;9.158;2022-08-05T06:44:59;3.33;;;2.80;;
14015;SDS011;7083;48.854;9.158;2022-08-05T06:47:27;5.07;;;2.70;;
14015;SDS011;7083;48.854;9.158;2022-08-05T06:49:54;2.70;;;2.50;;
14015;SDS011;7083;48.854;9.158;2022-08-05T06:52:20;3.07;;;2.77;;
14015;SDS011;7083;48.854;9.158;2022-08-05T06:54:47;3.20;;;3.00;;
14015;SDS011;7083;48.854;9.158;2022-08-05T06:57:14;3.80;;;2.60;;
14015;SDS011;7083;48.854;9.158;2022-08-05T06:59:42;3.10;;;2.83;;
14015;SDS011;7083;48.854;9.158;2022-08-05T07:02:09;4.73;;;3.17;;
14015;SDS011;7083;48.854;9.158;2022-08-05T07:04:37;4.30;;;2.57;;
14015;SDS011;7083;48.854;9.158;2022-08-05T07:07:04;3.50;;;3.03;;
14015;SDS011;7083;48.854;9.158;2022-08-05T07:09:31;3.20;;;2.77;;
14015;SDS011;7083;48.854;9.158;2022-08-05T07:11:58;4.57;;;3.43;;
14015;SDS011;7083;48.854;9.158;2022-08-05T07:14:25;3.10;;;2.80;;
14015;SDS011;7083;48.854;9.158;2022-08-05T07:17:09;4.00;;;2.80;;
14015;SDS011;7083;48.854;9.158;2022-08-05T07:19:37;3.50;;;2.87;;
14015;SDS011;7083;48.854;9.158;2022-08-05T07:22:04;2.73;;;2.50;;
14015;SDS011;7083;48.854;9.158;2022-08-05T07:24:31;2.93;;;2.70;;
14015;SDS011;7083;48.854;9.158;2022-08-05T07:26:57;2.70;;;2.60;;
14015;SDS011;7083;48.854;9.158;2022-08-05T07:29:24;3.40;;;3.20;;
14015;SDS011;7083;48.854;9.158;2022-08-05T07:31:51;2.70;;;2.50;;
14015;SDS011;7083;48.854;9.158;2022-08-05T07:34:18;2.50;;;2.40;;
14015;SDS011;7083;48.854;9.158;2022-08-05T07:36:46;3.17;;;2.50;;
14015;SDS011;7083;48.854;9.158;2022-08-05T07:39:13;4.83;;;2.40;;
14015;SDS011;7083;48.854;9.158;2022-08-05T07:41:40;2.23;;;2.13;;
14015;SDS011;7083;48.854;9.158;2022-08-05T07:44:07;2.33;;;2.23;;
14015;SDS011;7083;48.854;9.158;2022-08-05T07:46:34;3.17;;;2.40;;
14015;SDS011;7083;48.854;9.158;2022-08-05T07:49:02;2.60;;;2.33;;
14015;SDS011;7083;48.854;9.158;2022-08-05T07:51:29;1.87;;;1.80;;
14015;SDS011;7083;48.854;9.158;2022-08-05T07:53:58;2.03;;;1.90;;
14015;SDS011;7083;48.854;9.158;2022-08-05T07:56:25;2.50;;;2.30;;
14015;SDS011;7083;48.854;9.158;2022-08-05T07:58:52;2.60;;;2.13;;
14015;SDS011;7083;48.854;9.158;2022-08-05T08:01:19;3.43;;;2.13;;
14015;SDS011;7083;48.854;9.158;2022-08-05T08:03:49;2.13;;;1.93;;
14015;SDS011;7083;48.854;9.158;2022-08-05T08:06:16;1.83;;;1.67;;
14015;SDS011;7083;48.854;9.158;2022-08-05T08:08:43;1.53;;;1.53;;
14015;SDS011;7083;48.854;9.158;2022-08-05T08:11:11;1.97;;;1.87;;
14015;SDS011;7083;48.854;9.158;2022-08-05T08:13:39;1.47;;;1.47;;
14015;SDS011;7083;48.854;9.158;2022-08-05T08:16:06;1.60;;;1.50;;
14015;SDS011;7083;48.854;9.158;2022-08-05T08:18:33;2.53;;;1.70;;
14015;SDS011;7083;48.854;9.158;2022-08-05T08:21:00;1.50;;;1.40;;
14015;SDS011;7083;48.854;9.158;2022-08-05T08:23:28;1.87;;;1.77;;
14015;SDS011;7083;48.854;9.158;2022-08-05T08:25:55;2.93;;;1.87;;
14015;SDS011;7083;48.854;9.158;2022-08-05T08:28:23;3.03;;;1.70;;
14015;SDS011;7083;48.854;9.158;2022-08-05T08:30:50;1.70;;;1.70;;
14015;SDS011;7083;48.854;9.158;2022-08-05T08:33:17;4.13;;;2.07;;
14015;SDS011;7083;48.854;9.158;2022-08-05T08:35:44;3.23;;;1.70;;
14015;SDS011;7083;48.854;9.158;2022-08-05T08:38:11;2.77;;;1.77;;
14015;SDS011;7083;48.854;9.158;2022-08-05T08:40:40;2.00;;;1.90;;
14015;SDS011;7083;48.854;9.158;2022-08-05T08:43:08;2.03;;;1.67;;
14015;SDS011;7083;48.854;9.158;2022-08-05T08:45:38;1.57;;;1.40;;
14015;SDS011;7083;48.854;9.158;2022-08-05T08:48:06;1.90;;;1.50;;
14015;SDS011;7083;48.854;9.158;2022-08-05T08:50:34;1.70;;;1.70;;
14015;SDS011;7083;48.854;9.158;2022-08-05T08:53:03;1.70;;;1.60;;
14015;SDS011;7083;48.854;9.158;2022-08-05T08:55:31;1.73;;;1.63;;
14015;SDS011;7083;48.854;9.158;2022-08-05T08:57:58;3.70;;;1.80;;
14015;SDS011;7083;48.854;9.158;2022-08-05T09:00:26;2.50;;;1.77;;
14015;SDS011;7083;48.854;9.158;2022-08-05T09:02:54;1.90;;;1.80;;
14015;SDS011;7083;48.854;9.158;2022-08-05T09:05:22;1.77;;;1.67;;
14015;SDS011;7083;48.854;9.158;2022-08-05T09:07:50;3.23;;;1.73;;
14015;SDS011;7083;48.854;9.158;2022-08-05T09:10:17;1.80;;;1.70;;
14015;SDS011;7083;48.854;9.158;2022-08-05T09:12:44;1.60;;;1.50;;
14015;SDS011;7083;48.854;9.158;2022-08-05T09:15:11;1.90;;;1.80;;
14015;SDS011;7083;48.854;9.158;2022-08-05T09:17:39;1.60;;;1.60;;
14015;SDS011;7083;48.854;9.158;2022-08-05T09:20:08;1.57;;;1.50;;
14015;SDS011;7083;48.854;9.158;2022-08-05T09:25:23;2.00;;;1.87;;
14015;SDS011;7083;48.854;9.158;2022-08-05T09:27:50;1.53;;;1.43;;
14015;SDS011;7083;48.854;9.158;2022-08-05T09:30:17;1.67;;;1.57;;
14015;SDS011;7083;48.854;9.158;2022-08-05T09:32:44;1.63;;;1.53;;
14015;SDS011;7083;48.854;9.158;2022-08-05T09:35:14;1.83;;;1.73;;
14015;SDS011;7083;48.854;9.158;2022-08-05T09:37:47;1.73;;;1.67;;
14015;SDS011;7083;48.854;9.158;2022-08-05T09:40:28;1.40;;;1.30;;
14015;SDS011;7083;48.854;9.158;2022-08-05T09:42:55;1.77;;;1.60;;
14015;SDS011;7083;48.854;9.158;2022-08-05T09:45:26;1.60;;;1.50;;
14015;SDS011;7083;48.854;9.158;2022-08-05T09:47:59;2.17;;;1.80;;
14015;SDS011;7083;48.854;9.158;2022-08-05T09:50:35;1.83;;;1.73;;
14015;SDS011;7083;48.854;9.158;2022-08-05T09:53:02;1.77;;;1.40;;
14015;SDS011;7083;48.854;9.158;2022-08-05T09:55:33;1.80;;;1.70;;
14015;SDS011;7083;48.854;9.158;2022-08-05T09:58:08;3.13;;;1.60;;
14015;SDS011;7083;48.854;9.158;2022-08-05T10:00:35;1.63;;;1.53;;
14015;SDS011;7083;48.854;9.158;2022-08-05T10:03:07;1.80;;;1.70;;
14015;SDS011;7083;48.854;9.158;2022-08-05T10:05:36;2.47;;;1.30;;
14015;SDS011;7083;48.854;9.158;2022-08-05T10:08:05;1.47;;;1.47;;
14015;SDS011;7083;48.854;9.158;2022-08-05T10:10:35;2.20;;;1.67;;
14015;SDS011;7083;48.854;9.158;2022-08-05T10:13:03;1.57;;;1.57;;
14015;SDS011;7083;48.854;9.158;2022-08-05T10:15:31;1.43;;;1.33;;
14015;SDS011;7083;48.854;9.158;2022-08-05T10:18:05;1.50;;;1.50;;
14015;SDS011;7083;48.854;9.158;2022-08-05T10:20:34;1.63;;;1.53;;
14015;SDS011;7083;48.854;9.158;2022-08-05T10:23:02;1.73;;;1.53;;
14015;SDS011;7083;48.854;9.158;2022-08-05T10:25:29;2.40;;;1.17;;
14015;SDS011;7083;48.854;9.158;2022-08-05T10:27:56;1.50;;;1.40;;
14015;SDS011;7083;48.854;9.158;2022-08-05T10:30:24;1.53;;;1.43;;
14015;SDS011;7083;48.854;9.158;2022-08-05T10:32:51;1.63;;;1.53;;
14015;SDS011;7083;48.854;9.158;2022-08-05T10:35:18;1.57;;;1.50;;
14015;SDS011;7083;48.854;9.158;2022-08-05T10:37:45;2.20;;;1.30;;
14015;SDS011;7083;48.854;9.158;2022-08-05T10:40:15;1.67;;;1.57;;
14015;SDS011;7083;48.854;9.158;2022-08-05T10:42:44;1.63;;;1.53;;
14015;SDS011;7083;48.854;9.158;2022-08-05T10:45:13;1.50;;;1.40;;
14015;SDS011;7083;48.854;9.158;2022-08-05T10:47:41;2.03;;;1.53;;
14015;SDS011;7083;48.854;9.158;2022-08-05T10:50:10;1.70;;;1.60;;
14015;SDS011;7083;48.854;9.158;2022-08-05T10:52:39;2.10;;;1.35;;
14015;SDS011;7083;48.854;9.158;2022-08-05T10:55:08;2.43;;;1.63;;
14015;SDS011;7083;48.854;9.158;2022-08-05T10:57:36;1.53;;;1.43;;
14015;SDS011;7083;48.854;9.158;2022-08-05T11:00:06;1.65;;;1.58;;
14015;SDS011;7083;48.854;9.158;2022-08-05T11:02:33;2.40;;;1.50;;
14015;SDS011;7083;48.854;9.158;2022-08-05T11:05:02;3.63;;;1.60;;
14015;SDS011;7083;48.854;9.158;2022-08-05T11:07:30;1.50;;;1.40;;
14015;SDS011;7083;48.854;9.158;2022-08-05T11:09:59;1.43;;;1.43;;
14015;SDS011;7083;48.854;9.158;2022-08-05T11:12:43;1.80;;;1.80;;
14015;SDS011;7083;48.854;9.158;2022-08-05T11:15:18;2.43;;;1.63;;
14015;SDS011;7083;48.854;9.158;2022-08-05T11:17:46;2.90;;;1.50;;
14015;SDS011;7083;48.854;9.158;2022-08-05T11:23:23;1.60;;;1.50;;
14015;SDS011;7083;48.854;9.158;2022-08-05T11:25:58;1.73;;;1.63;;
14015;SDS011;7083;48.854;9.158;2022-08-05T11:28:43;1.73;;;1.63;;
14015;SDS011;7083;48.854;9.158;2022-08-05T11:31:21;1.77;;;1.70;;
14015;SDS011;7083;48.854;9.158;2022-08-05T11:33:52;1.52;;;1.50;;
14015;SDS011;7083;48.854;9.158;2022-08-05T11:36:20;2.50;;;1.55;;
14015;SDS011;7083;48.854;9.158;2022-08-05T11:38:50;1.87;;;1.57;;
14015;SDS011;7083;48.854;9.158;2022-08-05T11:41:19;1.70;;;1.63;;
14015;SDS011;7083;48.854;9.158;2022-08-05T11:43:53;2.65;;;1.45;;
14015;SDS011;7083;48.854;9.158;2022-08-05T11:46:24;4.55;;;1.80;;
14015;SDS011;7083;48.854;9.158;2022-08-05T11:48:51;1.50;;;1.40;;
14015;SDS011;7083;48.854;9.158;2022-08-05T11:51:18;1.80;;;1.70;;
14015;SDS011;7083;48.854;9.158;2022-08-05T11:53:45;1.60;;;1.50;;
14015;SDS011;7083;48.854;9.158;2022-08-05T11:56:12;2.10;;;1.80;;
14015;SDS011;7083;48.854;9.158;2022-08-05T11:58:40;1.30;;;1.30;;
14015;SDS011;7083;48.854;9.158;2022-08-05T12:01:09;2.67;;;1.85;;
14015;SDS011;7083;48.854;9.158;2022-08-05T12:03:41;2.15;;;1.60;;
14015;SDS011;7083;48.854;9.158;2022-08-05T12:06:08;2.00;;;1.73;;
14015;SDS011;7083;48.854;9.158;2022-08-05T12:08:42;3.25;;;1.50;;
14015;SDS011;7083;48.854;9.158;2022-08-05T12:11:09;1.55;;;1.50;;
14015;SDS011;7083;48.854;9.158;2022-08-05T12:13:37;1.60;;;1.50;;
14015;SDS011;7083;48.854;9.158;2022-08-05T12:16:05;1.50;;;1.40;;
14015;SDS011;7083;48.854;9.158;2022-08-05T12:18:33;3.15;;;1.42;;
14015;SDS011;7083;48.854;9.158;2022-08-05T12:21:07;2.92;;;1.65;;
14015;SDS011;7083;48.854;9.158;2022-08-05T12:23:35;1.80;;;1.70;;
14015;SDS011;7083;48.854;9.158;2022-08-05T12:26:01;1.35;;;1.30;;
14015;SDS011;7083;48.854;9.158;2022-08-05T12:28:29;1.58;;;1.50;;
14015;SDS011;7083;48.854;9.158;2022-08-05T12:30:56;1.55;;;1.40;;
14015;SDS011;7083;48.854;9.158;2022-08-05T12:33:23;1.05;;;1.05;;
14015;SDS011;7083;48.854;9.158;2022-08-05T12:35:52;1.42;;;1.30;;
14015;SDS011;7083;48.854;9.158;2022-08-05T12:38:19;1.10;;;1.10;;
14015;SDS011;7083;48.854;9.158;2022-08-05T12:40:46;1.25;;;1.15;;
14015;SDS011;7083;48.854;9.158;2022-08-05T12:43:13;1.20;;;1.20;;
14015;SDS011;7083;48.854;9.158;2022-08-05T12:45:48;1.50;;;1.40;;
14015;SDS011;7083;48.854;9.158;2022-08-05T12:48:16;1.00;;;1.00;;
14015;SDS011;7083;48.854;9.158;2022-08-05T12:50:43;1.60;;;1.50;;
14015;SDS011;7083;48.854;9.158;2022-08-05T12:53:15;1.42;;;1.42;;
14015;SDS011;7083;48.854;9.158;2022-08-05T12:55:42;1.38;;;1.38;;
14015;SDS011;7083;48.854;9.158;2022-08-05T12:58:21;3.28;;;1.38;;
14015;SDS011;7083;48.854;9.158;2022-08-05T13:00:48;1.65;;;1.15;;
14015;SDS011;7083;48.854;9.158;2022-08-05T13:03:15;1.40;;;1.38;;
14015;SDS011;7083;48.854;9.158;2022-08-05T13:05:45;1.52;;;1.42;;
14015;SDS011;7083;48.854;9.158;2022-08-05T13:08:12;1.15;;;1.15;;
14015;SDS011;7083;48.854;9.158;2022-08-05T13:10:43;1.30;;;1.30;;
14015;SDS011;7083;48.854;9.158;2022-08-05T13:13:10;1.67;;;1.58;;
14015;SDS011;7083;48.854;9.158;2022-08-05T13:15:38;1.35;;;1.25;;
14015;SDS011;7083;48.854;9.158;2022-08-05T13:18:05;2.58;;;1.20;;
14015;SDS011;7083;48.854;9.158;2022-08-05T13:20:32;1.48;;;1.38;;
14015;SDS011;7083;48.854;9.158;2022-08-05T13:22:59;1.52;;;1.52;;
14015;SDS011;7083;48.854;9.158;2022-08-05T13:25:28;1.17;;;1.17;;
14015;SDS011;7083;48.854;9.158;2022-08-05T13:27:54;2.25;;;1.25;;
14015;SDS011;7083;48.854;9.158;2022-08-05T13:30:22;1.33;;;1.33;;
14015;SDS011;7083;48.854;9.158;2022-08-05T13:32:50;1.33;;;1.20;;
14015;SDS011;7083;48.854;9.158;2022-08-05T13:35:17;2.65;;;1.20;;
14015;SDS011;7083;48.854;9.158;2022-08-05T13:37:45;2.80;;;1.60;;
14015;SDS011;7083;48.854;9.158;2022-08-05T13:40:12;1.30;;;1.30;;
14015;SDS011;7083;48.854;9.158;2022-08-05T13:42:41;1.42;;;1.42;;
14015;SDS011;7083;48.854;9.158;2022-08-05T13:45:09;1.70;;;1.60;;
14015;SDS011;7083;48.854;9.158;2022-08-05T13:47:37;1.52;;;1.42;;
14015;SDS011;7083;48.854;9.158;2022-08-05T13:50:04;2.33;;;1.42;;
14015;SDS011;7083;48.854;9.158;2022-08-05T13:52:32;1.67;;;1.40;;
14015;SDS011;7083;48.854;9.158;2022-08-05T13:54:59;1.60;;;1.50;;
14015;SDS011;7083;48.854;9.158;2022-08-05T13:57:25;1.38;;;1.38;;
14015;SDS011;7083;48.854;9.158;2022-08-05T13:59:53;1.63;;;1.52;;
14015;SDS011;7083;48.854;9.158;2022-08-05T14:02:20;1.80;;;1.50;;
14015;SDS011;7083;48.854;9.158;2022-08-05T14:04:47;1.80;;;1.60;;
14015;SDS011;7083;48.854;9.158;2022-08-05T14:07:31;1.35;;;1.35;;
14015;SDS011;7083;48.854;9.158;2022-08-05T14:09:59;1.60;;;1.50;;
14015;SDS011;7083;48.854;9.158;2022-08-05T14:12:26;2.55;;;2.33;;
14015;SDS011;7083;48.854;9.158;2022-08-05T14:14:54;4.68;;;2.10;;
14015;SDS011;7083;48.854;9.158;2022-08-05T14:17:21;9.10;;;1.65;;
14015;SDS011;7083;48.854;9.158;2022-08-05T14:19:50;5.78;;;1.50;;
14015;SDS011;7083;48.854;9.158;2022-08-05T14:22:18;1.77;;;1.67;;
14015;SDS011;7083;48.854;9.158;2022-08-05T14:24:45;2.00;;;1.65;;
14015;SDS011;7083;48.854;9.158;2022-08-05T14:27:12;4.05;;;1.55;;
14015;SDS011;7083;48.854;9.158;2022-08-05T14:29:39;1.20;;;1.20;;
14015;SDS011;7083;48.854;9.158;2022-08-05T14:32:07;4.07;;;1.40;;
14015;SDS011;7083;48.854;9.158;2022-08-05T14:34:34;6.43;;;1.65;;
14015;SDS011;7083;48.854;9.158;2022-08-05T14:37:01;9.93;;;2.03;;
14015;SDS011;7083;48.854;9.158;2022-08-05T14:39:28;4.22;;;1.67;;
14015;SDS011;7083;48.854;9.158;2022-08-05T14:41:55;6.28;;;1.30;;
14015;SDS011;7083;48.854;9.158;2022-08-05T14:44:21;3.00;;;2.10;;
14015;SDS011;7083;48.854;9.158;2022-08-05T14:46:48;3.17;;;1.50;;
14015;SDS011;7083;48.854;9.158;2022-08-05T14:49:16;2.10;;;1.80;;
14015;SDS011;7083;48.854;9.158;2022-08-05T14:51:42;10.35;;;2.25;;
14015;SDS011;7083;48.854;9.158;2022-08-05T14:54:10;5.38;;;2.13;;
14015;SDS011;7083;48.854;9.158;2022-08-05T14:56:37;10.18;;;2.05;;
14015;SDS011;7083;48.854;9.158;2022-08-05T14:59:04;6.22;;;1.60;;
14015;SDS011;7083;48.854;9.158;2022-08-05T15:01:31;9.48;;;1.67;;
14015;SDS011;7083;48.854;9.158;2022-08-05T15:03:58;22.48;;;3.50;;
14015;SDS011;7083;48.854;9.158;2022-08-05T15:06:26;43.95;;;3.78;;
14015;SDS011;7083;48.854;9.158;2022-08-05T15:08:54;27.60;;;3.25;;
14015;SDS011;7083;48.854;9.158;2022-08-05T15:11:21;3.63;;;1.90;;
14015;SDS011;7083;48.854;9.158;2022-08-05T15:13:47;5.18;;;1.50;;